createdAt,value
2022-11-29T00:01:23.842Z,99386.39
2022-11-29T00:04:35.630Z,99387.34
2022-11-29T00:07:47.339Z,99396.17
2022-11-29T00:10:59.187Z,99394.48
2022-11-29T00:14:11.985Z,99391.17
2022-11-29T00:17:23.708Z,99382.69
2022-11-29T00:20:35.641Z,99388.11
2022-11-29T00:23:47.451Z,99379.44
2022-11-29T00:26:59.464Z,99377.69
2022-11-29T00:30:15.151Z,99373.48
2022-11-29T00:33:26.827Z,99383.20
2022-11-29T00:36:39.024Z,99391.92
2022-11-29T00:39:50.692Z,99382.58
2022-11-29T00:43:02.389Z,99379.80
2022-11-29T00:46:15.322Z,99372.91
2022-11-29T00:49:27.267Z,99373.70
2022-11-29T00:52:39.215Z,99366.84
2022-11-29T00:55:53.353Z,99367.58
2022-11-29T00:59:05.148Z,99369.44
2022-11-29T01:02:17.197Z,99370.98
2022-11-29T01:05:29.324Z,99361.54
2022-11-29T01:08:41.400Z,99361.48
2022-11-29T01:11:54.691Z,99365.47
2022-11-29T01:15:07.210Z,99358.02
2022-11-29T01:18:18.864Z,99357.28
2022-11-29T01:21:31.237Z,99356.63
2022-11-29T01:24:43.074Z,99363.64
2022-11-29T01:27:56.286Z,99362.91
2022-11-29T01:31:13.218Z,99361.09
2022-11-29T01:34:25.046Z,99360.16
2022-11-29T01:37:37.319Z,99355.98
2022-11-29T01:40:49.212Z,99348.88
2022-11-29T01:44:08.237Z,99341.95
2022-11-29T01:47:20.380Z,99341.37
2022-11-29T01:50:32.469Z,99341.16
2022-11-29T01:53:44.500Z,99337.02
2022-11-29T01:57:00.292Z,99336.38
2022-11-29T02:00:19.553Z,99342.82
2022-11-29T02:03:31.816Z,99338.30
2022-11-29T02:06:45.515Z,99337.70
2022-11-29T02:09:57.227Z,99344.42
2022-11-29T02:13:15.654Z,99351.52
2022-11-29T02:16:32.755Z,99351.63
2022-11-29T02:20:20.462Z,99347.82
2022-11-29T02:24:07.970Z,99358.44
2022-11-29T02:27:51.541Z,99341.96
2022-11-29T02:31:47.310Z,99361.78
2022-11-29T02:35:09.685Z,99363.84
2022-11-29T02:38:58.951Z,99362.64
2022-11-29T02:42:56.867Z,99367.12
2022-11-29T02:46:24.923Z,99369.38
2022-11-29T02:49:54.364Z,99362.13
2022-11-29T02:53:16.344Z,99353.80
2022-11-29T02:56:36.367Z,99360.52
2022-11-29T02:59:57.171Z,99359.59
2022-11-29T03:03:14.603Z,99354.83
2022-11-29T03:06:34.494Z,99362.78
2022-11-29T03:09:49.110Z,99371.92
2022-11-29T03:13:01.710Z,99371.78
2022-11-29T03:16:21.034Z,99376.60
2022-11-29T03:19:53.670Z,99368.77
2022-11-29T03:23:26.372Z,99367.70
2022-11-29T03:26:43.338Z,99375.72
2022-11-29T03:29:57.871Z,99382.45
2022-11-29T03:33:14.171Z,99380.59
2022-11-29T03:36:35.591Z,99389.27
2022-11-29T03:39:54.088Z,99389.53
2022-11-29T03:43:10.750Z,99385.13
2022-11-29T03:46:30.437Z,99393.73
2022-11-29T03:49:48.049Z,99388.31
2022-11-29T03:53:05.187Z,99391.80
2022-11-29T03:56:34.268Z,99401.80
2022-11-29T04:00:03.312Z,99404.41
2022-11-29T04:03:52.845Z,99406.16
2022-11-29T04:07:17.049Z,99412.42
2022-11-29T04:10:50.206Z,99420.09
2022-11-29T04:14:38.261Z,99419.36
2022-11-29T04:19:02.362Z,99416.78
2022-11-29T04:22:59.461Z,99414.77
2022-11-29T04:26:50.940Z,99417.70
2022-11-29T04:30:24.215Z,99427.44
2022-11-29T04:34:15.736Z,99427.64
2022-11-29T04:37:58.223Z,99421.57
2022-11-29T04:41:32.550Z,99440.39
2022-11-29T04:45:03.181Z,99440.39
2022-11-29T04:48:30.182Z,99454.22
2022-11-29T04:52:09.286Z,99462.11
2022-11-29T04:55:31.220Z,99458.30
2022-11-29T04:58:48.185Z,99464.23
2022-11-29T05:02:10.272Z,99468.32
2022-11-29T05:05:34.175Z,99469.38
2022-11-29T05:08:57.087Z,99470.49
2022-11-29T05:12:14.823Z,99474.04
2022-11-29T05:15:53.076Z,99477.50
2022-11-29T05:19:36.709Z,99483.92
2022-11-29T05:22:57.160Z,99488.19
2022-11-29T05:26:16.321Z,99487.33
2022-11-29T05:29:37.456Z,99497.91
2022-11-29T05:33:04.536Z,99492.40
2022-11-29T05:36:24.536Z,99496.66
2022-11-29T05:39:52.557Z,99497.47
2022-11-29T05:43:19.178Z,99500.81
2022-11-29T05:46:37.001Z,99511.53
2022-11-29T05:49:56.466Z,99508.13
2022-11-29T05:53:17.944Z,99516.07
2022-11-29T05:56:37.060Z,99516.58
2022-11-29T05:59:51.831Z,99517.36
2022-11-29T06:03:11.041Z,99525.19
2022-11-29T06:06:30.349Z,99521.76
2022-11-29T06:09:48.311Z,99534.80
2022-11-29T06:13:10.516Z,99538.73
2022-11-29T06:17:02.765Z,99541.23
2022-11-29T06:20:48.711Z,99541.42
2022-11-29T06:24:34.572Z,99542.20
2022-11-29T06:28:13.860Z,99538.98
2022-11-29T06:31:31.244Z,99543.22
2022-11-29T06:34:51.103Z,99540.67
2022-11-29T06:38:07.776Z,99544.75
2022-11-29T06:41:26.512Z,99541.14
2022-11-29T06:44:40.036Z,99550.95
2022-11-29T06:47:57.071Z,99554.05
2022-11-29T06:51:14.841Z,99555.77
2022-11-29T06:54:38.744Z,99555.72
2022-11-29T06:58:07.536Z,99556.38
2022-11-29T07:01:27.884Z,99552.80
2022-11-29T07:04:59.205Z,99559.67
2022-11-29T07:08:17.307Z,99566.41
2022-11-29T07:11:31.749Z,99570.09
2022-11-29T07:14:45.742Z,99567.44
2022-11-29T07:18:22.064Z,99570.02
2022-11-29T07:21:42.875Z,99568.70
2022-11-29T07:25:04.200Z,99572.05
2022-11-29T07:28:26.479Z,99571.91
2022-11-29T07:31:48.121Z,99570.36
2022-11-29T07:35:06.726Z,99575.86
2022-11-29T07:38:24.664Z,99580.92
2022-11-29T07:41:43.420Z,99587.99
2022-11-29T07:45:04.246Z,99585.73
2022-11-29T07:48:19.300Z,99584.73
2022-11-29T07:51:31.637Z,99596.84
2022-11-29T07:54:43.791Z,99582.81
2022-11-29T07:57:56.847Z,99594.81
2022-11-29T08:01:09.304Z,99596.56
2022-11-29T08:04:21.135Z,99601.83
2022-11-29T08:07:33.091Z,99600.63
2022-11-29T08:10:45.758Z,99603.23
2022-11-29T08:14:01.542Z,99604.78
2022-11-29T08:17:13.429Z,99603.71
2022-11-29T08:20:25.766Z,99606.47
2022-11-29T08:23:37.472Z,99603.38
2022-11-29T08:26:49.318Z,99614.44
2022-11-29T08:30:01.381Z,99604.00
2022-11-29T08:33:13.195Z,99607.59
2022-11-29T08:36:26.868Z,99603.71
2022-11-29T08:39:38.705Z,99614.23
2022-11-29T08:42:50.613Z,99618.29
2022-11-29T08:46:02.607Z,99633.08
2022-11-29T08:49:14.488Z,99623.63
2022-11-29T08:52:41.330Z,99621.11
2022-11-29T08:55:53.284Z,99619.09
2022-11-29T08:59:05.148Z,99618.23
2022-11-29T09:02:17.446Z,99618.67
2022-11-29T09:05:29.978Z,99621.76
2022-11-29T09:08:43.797Z,99617.69
2022-11-29T09:11:55.725Z,99622.97
2022-11-29T09:15:07.925Z,99614.02
2022-11-29T09:18:20.033Z,99615.27
2022-11-29T09:21:36.852Z,99621.16
2022-11-29T09:24:48.748Z,99612.87
2022-11-29T09:28:03.540Z,99614.11
2022-11-29T09:31:20.099Z,99613.31
2022-11-29T09:34:32.072Z,99617.02
2022-11-29T09:37:47.490Z,99622.88
2022-11-29T09:41:02.578Z,99617.13
2022-11-29T09:44:20.945Z,99612.72
2022-11-29T09:47:52.821Z,99621.49
2022-11-29T09:51:14.447Z,99622.29
2022-11-29T09:54:36.011Z,99620.39
2022-11-29T09:57:49.910Z,99617.73
2022-11-29T10:01:07.779Z,99610.64
2022-11-29T10:04:24.449Z,99614.94
2022-11-29T10:07:42.040Z,99608.70
2022-11-29T10:10:57.286Z,99624.69
2022-11-29T10:14:17.997Z,99613.31
2022-11-29T10:17:38.611Z,99621.88
2022-11-29T10:20:54.149Z,99623.53
2022-11-29T10:24:11.672Z,99617.33
2022-11-29T10:27:29.454Z,99615.28
2022-11-29T10:30:43.233Z,99616.38
2022-11-29T10:33:56.451Z,99604.34
2022-11-29T10:37:08.984Z,99606.80
2022-11-29T10:40:25.870Z,99602.05
2022-11-29T10:43:37.820Z,99597.63
2022-11-29T10:46:49.713Z,99604.28
2022-11-29T10:50:02.002Z,99602.63
2022-11-29T10:53:17.481Z,99597.63
2022-11-29T10:56:35.212Z,99587.47
2022-11-29T10:59:47.108Z,99587.89
2022-11-29T11:02:58.871Z,99583.69
2022-11-29T11:06:18.859Z,99586.02
2022-11-29T11:09:38.359Z,99582.22
2022-11-29T11:13:06.989Z,99589.13
2022-11-29T11:16:24.539Z,99585.66
2022-11-29T11:19:38.650Z,99587.83
2022-11-29T11:22:50.659Z,99591.07
2022-11-29T11:26:09.430Z,99588.33
2022-11-29T11:29:28.784Z,99590.38
2022-11-29T11:32:40.876Z,99592.47
2022-11-29T11:36:17.425Z,99597.63
2022-11-29T11:39:32.476Z,99591.80
2022-11-29T11:42:46.540Z,99588.56
2022-11-29T11:46:00.901Z,99589.13
2022-11-29T11:49:23.779Z,99597.34
2022-11-29T11:52:42.806Z,99594.64
2022-11-29T11:56:06.374Z,99599.00
2022-11-29T11:59:26.658Z,99595.81
2022-11-29T12:02:44.978Z,99597.41
2022-11-29T12:06:01.277Z,99598.33
2022-11-29T12:09:22.526Z,99600.52
2022-11-29T12:12:38.197Z,99598.55
2022-11-29T12:15:53.931Z,99596.80
2022-11-29T12:19:14.916Z,99608.20
2022-11-29T12:22:32.059Z,99607.47
2022-11-29T12:25:49.598Z,99606.67
2022-11-29T12:29:02.394Z,99602.11
2022-11-29T12:32:30.406Z,99606.80
2022-11-29T12:36:12.873Z,99602.97
2022-11-29T12:39:37.462Z,99606.31
2022-11-29T12:42:57.141Z,99610.06
2022-11-29T12:46:14.094Z,99599.87
2022-11-29T12:49:31.520Z,99612.09
2022-11-29T12:52:49.573Z,99612.51
2022-11-29T12:56:10.937Z,99614.05
2022-11-29T12:59:34.487Z,99614.84
2022-11-29T13:03:04.409Z,99620.95
2022-11-29T13:06:25.879Z,99623.56
2022-11-29T13:10:00.471Z,99619.27
2022-11-29T13:13:21.129Z,99620.73
2022-11-29T13:16:46.866Z,99622.55
2022-11-29T13:20:02.682Z,99622.45
2022-11-29T13:23:39.175Z,99626.08
2022-11-29T13:26:39.021Z,99631.17
2022-11-29T13:29:51.175Z,99629.16
2022-11-29T13:33:08.881Z,99640.99
2022-11-29T13:36:25.629Z,99644.22
2022-11-29T13:39:49.193Z,99641.39
2022-11-29T13:43:08.374Z,99639.38
2022-11-29T13:46:29.986Z,99646.53
2022-11-29T13:50:04.119Z,99651.83
2022-11-29T13:53:23.754Z,99654.63
2022-11-29T13:56:47.037Z,99650.95
2022-11-29T13:59:59.073Z,99657.85
2022-11-29T14:03:38.428Z,99656.10
2022-11-29T14:06:50.471Z,99660.45
2022-11-29T14:10:08.323Z,99654.72
2022-11-29T14:13:22.018Z,99671.11
2022-11-29T14:16:39.978Z,99665.15
2022-11-29T14:19:51.943Z,99666.87
2022-11-29T14:23:39.020Z,99668.55
2022-11-29T14:26:50.919Z,99662.59
2022-11-29T14:30:03.093Z,99669.95
2022-11-29T14:33:32.576Z,99673.42
2022-11-29T14:36:55.903Z,99672.41
2022-11-29T14:40:18.028Z,99675.75
2022-11-29T14:43:34.639Z,99675.91
2022-11-29T14:46:46.730Z,99677.03
2022-11-29T14:50:00.907Z,99678.13
2022-11-29T14:53:29.882Z,99667.48
2022-11-29T14:56:47.461Z,99684.20
2022-11-29T15:00:00.528Z,99678.63
2022-11-29T15:03:18.536Z,99689.88
2022-11-29T15:06:41.641Z,99682.05
2022-11-29T15:09:52.757Z,99685.33
2022-11-29T15:13:06.680Z,99687.73
2022-11-29T15:16:49.989Z,99685.92
2022-11-29T15:20:28.990Z,99688.53
2022-11-29T15:23:49.415Z,99684.81
2022-11-29T15:27:06.239Z,99691.05
2022-11-29T15:30:36.959Z,99691.14
2022-11-29T15:33:52.651Z,99685.18
2022-11-29T15:37:05.369Z,99683.16
2022-11-29T15:40:23.532Z,99678.58
2022-11-29T15:43:40.243Z,99685.42
2022-11-29T15:46:51.989Z,99685.40
2022-11-29T15:50:03.840Z,99676.64
2022-11-29T15:53:21.821Z,99685.91
2022-11-29T15:56:39.917Z,99687.60
2022-11-29T15:59:56.008Z,99679.70
2022-11-29T16:03:09.703Z,99685.05
2022-11-29T16:06:31.553Z,99684.26
2022-11-29T16:09:47.597Z,99691.14
2022-11-29T16:13:02.458Z,99692.22
2022-11-29T16:16:20.670Z,99692.16
2022-11-29T16:19:40.685Z,99697.09
2022-11-29T16:22:54.812Z,99700.94
2022-11-29T16:26:14.822Z,99703.39
2022-11-29T16:29:33.078Z,99705.94
2022-11-29T16:32:48.966Z,99698.78
2022-11-29T16:36:17.369Z,99700.38
2022-11-29T16:39:31.226Z,99699.42
2022-11-29T16:42:43.335Z,99698.78
2022-11-29T16:46:03.143Z,99710.60
2022-11-29T16:49:42.131Z,99701.97
2022-11-29T16:52:56.739Z,99711.40
2022-11-29T16:56:09.000Z,99718.28
2022-11-29T16:59:27.140Z,99719.30
2022-11-29T17:02:36.106Z,99728.95
2022-11-29T17:05:48.137Z,99735.89
2022-11-29T17:09:02.260Z,99743.97
2022-11-29T17:12:17.622Z,99733.22
2022-11-29T17:15:29.515Z,99733.31
2022-11-29T17:18:42.092Z,99735.92
2022-11-29T17:21:54.427Z,99742.63
2022-11-29T17:25:06.220Z,99736.38
2022-11-29T17:28:17.931Z,99740.56
2022-11-29T17:31:31.409Z,99742.50
2022-11-29T17:34:43.595Z,99737.34
2022-11-29T17:37:55.499Z,99745.05
2022-11-29T17:41:14.027Z,99735.34
2022-11-29T17:44:23.913Z,99740.56
2022-11-29T17:47:35.657Z,99743.23
2022-11-29T17:50:47.863Z,99743.17
2022-11-29T17:54:01.007Z,99739.00
2022-11-29T17:57:12.678Z,99750.27
2022-11-29T18:00:27.027Z,99748.30
2022-11-29T18:03:40.325Z,99744.95
2022-11-29T18:06:53.578Z,99745.91
2022-11-29T18:10:05.251Z,99749.16
2022-11-29T18:13:16.933Z,99746.70
2022-11-29T18:16:30.909Z,99744.22
2022-11-29T18:19:43.180Z,99750.27
2022-11-29T18:22:56.313Z,99749.31
2022-11-29T18:26:11.099Z,99751.13
2022-11-29T18:29:23.294Z,99752.73
2022-11-29T18:32:36.188Z,99754.54
2022-11-29T18:35:47.896Z,99761.57
2022-11-29T18:39:05.184Z,99753.68
2022-11-29T18:42:17.050Z,99748.52
2022-11-29T18:45:28.981Z,99744.16
2022-11-29T18:48:41.381Z,99747.51
2022-11-29T18:51:54.896Z,99744.22
2022-11-29T18:55:06.812Z,99747.56
2022-11-29T18:58:18.590Z,99748.36
2022-11-29T19:01:32.144Z,99744.83
2022-11-29T19:04:44.339Z,99751.00
2022-11-29T19:07:56.330Z,99745.91
2022-11-29T19:11:11.928Z,99752.81
2022-11-29T19:14:24.018Z,99751.46
2022-11-29T19:17:41.693Z,99751.34
2022-11-29T19:20:50.300Z,99756.35
2022-11-29T19:24:05.526Z,99755.43
2022-11-29T19:27:17.369Z,99754.20
2022-11-29T19:30:30.074Z,99755.77
2022-11-29T19:33:44.916Z,99750.36
2022-11-29T19:36:56.612Z,99757.30
2022-11-29T19:40:12.763Z,99768.64
2022-11-29T19:43:24.514Z,99762.80
2022-11-29T19:46:39.599Z,99772.48
2022-11-29T19:49:51.675Z,99770.67
2022-11-29T19:53:03.830Z,99761.14
2022-11-29T19:56:20.501Z,99768.19
2022-11-29T19:59:33.516Z,99768.24
2022-11-29T20:02:45.358Z,99772.55
2022-11-29T20:06:07.301Z,99777.12
2022-11-29T20:09:20.005Z,99767.32
2022-11-29T20:12:32.396Z,99767.32
2022-11-29T20:15:44.313Z,99771.22
2022-11-29T20:18:57.824Z,99771.89
2022-11-29T20:22:09.666Z,99771.89
2022-11-29T20:25:21.608Z,99773.41
2022-11-29T20:28:35.461Z,99780.31
2022-11-29T20:31:51.047Z,99787.33
2022-11-29T20:35:04.172Z,99779.27
2022-11-29T20:38:25.909Z,99776.70
2022-11-29T20:41:42.968Z,99773.28
2022-11-29T20:44:56.761Z,99783.73
2022-11-29T20:48:18.184Z,99784.66
2022-11-29T20:51:37.552Z,99778.48
2022-11-29T20:54:49.695Z,99787.05
2022-11-29T20:58:02.238Z,99784.38
2022-11-29T21:01:15.169Z,99783.48
2022-11-29T21:04:28.275Z,99788.71
2022-11-29T21:07:41.166Z,99792.21
2022-11-29T21:10:53.669Z,99789.66
2022-11-29T21:14:08.234Z,99789.45
2022-11-29T21:17:21.759Z,99791.33
2022-11-29T21:20:35.222Z,99791.20
2022-11-29T21:24:04.541Z,99797.59
2022-11-29T21:27:23.551Z,99796.78
2022-11-29T21:30:36.639Z,99789.97
2022-11-29T21:33:49.996Z,99788.13
2022-11-29T21:37:05.525Z,99799.46
2022-11-29T21:40:19.610Z,99803.94
2022-11-29T21:44:04.516Z,99795.39
2022-11-29T21:46:45.587Z,99800.63
2022-11-29T21:49:57.626Z,99797.92
2022-11-29T21:53:09.773Z,99810.27
2022-11-29T21:56:21.739Z,99795.25
2022-11-29T21:59:33.684Z,99793.34
2022-11-29T22:02:45.537Z,99797.00
2022-11-29T22:05:57.885Z,99790.15
2022-11-29T22:09:10.708Z,99798.88
2022-11-29T22:12:37.759Z,99792.64
2022-11-29T22:15:37.639Z,99788.16
2022-11-29T22:18:49.473Z,99798.78
2022-11-29T22:22:03.996Z,99794.30
2022-11-29T22:25:16.568Z,99792.91
2022-11-29T22:28:28.389Z,99795.31
2022-11-29T22:31:41.409Z,99797.39
2022-11-29T22:34:54.307Z,99794.92
2022-11-29T22:38:06.086Z,99798.34
2022-11-29T22:41:19.692Z,99798.34
2022-11-29T22:44:31.794Z,99798.28
2022-11-29T22:47:43.496Z,99803.77
2022-11-29T22:50:55.280Z,99803.35
2022-11-29T22:54:09.303Z,99794.72
2022-11-29T22:57:21.172Z,99804.42
2022-11-29T23:00:34.824Z,99807.09
2022-11-29T23:03:48.542Z,99801.88
2022-11-29T23:07:00.464Z,99794.84
2022-11-29T23:10:14.941Z,99794.72
2022-11-29T23:13:26.920Z,99809.38
2022-11-29T23:16:39.098Z,99806.02
2022-11-29T23:19:51.138Z,99805.16
2022-11-29T23:23:03.034Z,99809.49
2022-11-29T23:26:23.087Z,99816.73
2022-11-29T23:29:35.025Z,99814.13
2022-11-29T23:32:46.825Z,99813.20
2022-11-29T23:36:04.988Z,99811.59
2022-11-29T23:39:16.891Z,99804.83
2022-11-29T23:42:28.664Z,99806.58
2022-11-29T23:45:42.207Z,99815.27
2022-11-29T23:48:54.297Z,99817.02
2022-11-29T23:52:06.090Z,99821.34
2022-11-29T23:55:19.957Z,99820.23
2022-11-29T23:58:32.633Z,99816.56
